createdAt,value
2019-06-08T00:00:24.659Z,99.90
2019-06-08T00:02:53.437Z,99.90
2019-06-08T00:05:23.003Z,99.90
2019-06-08T00:07:51.708Z,99.90
2019-06-08T00:10:23.736Z,99.90
2019-06-08T00:12:51.065Z,99.90
2019-06-08T00:15:20.277Z,99.90
2019-06-08T00:17:49.074Z,99.90
2019-06-08T00:20:19.635Z,99.90
2019-06-08T00:22:48.189Z,99.90
2019-06-08T00:25:18.214Z,99.90
2019-06-08T00:27:47.181Z,99.90
2019-06-08T00:30:17.334Z,99.90
2019-06-08T00:32:45.776Z,99.90
2019-06-08T00:35:14.793Z,99.90
2019-06-08T00:37:43.580Z,99.90
2019-06-08T00:40:12.473Z,99.90
2019-06-08T00:42:40.929Z,99.90
2019-06-08T00:45:09.994Z,99.90
2019-06-08T00:47:47.637Z,99.90
2019-06-08T00:50:10.403Z,99.90
2019-06-08T00:52:38.843Z,99.90
2019-06-08T00:55:07.719Z,99.90
2019-06-08T00:57:36.155Z,99.90
2019-06-08T01:00:10.863Z,99.90
2019-06-08T01:02:37.232Z,99.90
2019-06-08T01:05:07.302Z,99.90
2019-06-08T01:07:36.060Z,99.90
2019-06-08T01:10:06.790Z,99.90
2019-06-08T01:12:35.476Z,99.90
2019-06-08T01:15:06.160Z,99.90
2019-06-08T01:17:34.707Z,99.90
2019-06-08T01:20:05.076Z,99.90
2019-06-08T01:22:33.889Z,99.90
2019-06-08T01:25:02.375Z,99.90
2019-06-08T01:27:30.808Z,99.90
2019-06-08T01:29:59.271Z,99.90
2019-06-08T01:32:28.566Z,99.90
2019-06-08T01:34:57.471Z,99.90
2019-06-08T01:37:26.944Z,99.90
2019-06-08T01:39:55.537Z,99.90
2019-06-08T01:42:23.957Z,99.90
2019-06-08T01:44:52.749Z,99.90
2019-06-08T01:47:22.097Z,99.90
2019-06-08T01:49:50.802Z,99.90
2019-06-08T01:52:19.307Z,99.90
2019-06-08T01:54:47.747Z,99.90
2019-06-08T01:57:16.176Z,99.90
2019-06-08T01:59:44.613Z,99.90
2019-06-08T02:02:13.379Z,99.90
2019-06-08T02:04:42.156Z,99.90
2019-06-08T02:07:10.947Z,99.90
2019-06-08T02:09:39.392Z,99.90
2019-06-08T02:12:07.826Z,99.90
2019-06-08T02:14:36.284Z,99.90
2019-06-08T02:17:05.695Z,99.90
2019-06-08T02:19:34.824Z,99.90
2019-06-08T02:22:03.451Z,99.90
2019-06-08T02:24:33.254Z,99.90
2019-06-08T02:27:02.210Z,99.90
2019-06-08T02:29:31.926Z,99.90
2019-06-08T02:32:00.714Z,99.90
2019-06-08T02:34:30.750Z,99.90
2019-06-08T02:36:59.338Z,99.90
2019-06-08T02:39:28.531Z,99.90
2019-06-08T02:41:57.200Z,99.90
2019-06-08T02:44:25.620Z,99.90
2019-06-08T02:46:54.077Z,99.90
2019-06-08T02:49:22.777Z,99.90
2019-06-08T02:51:51.221Z,99.90
2019-06-08T02:54:20.072Z,99.90
2019-06-08T02:56:51.262Z,99.90
2019-06-08T02:59:22.564Z,99.90
2019-06-08T03:01:52.982Z,99.90
2019-06-08T03:04:24.241Z,99.90
2019-06-08T03:06:53.320Z,99.90
2019-06-08T03:09:21.909Z,99.90
2019-06-08T03:11:52.085Z,99.90
2019-06-08T03:14:22.042Z,99.90
2019-06-08T03:16:50.481Z,99.90
2019-06-08T03:19:22.089Z,99.90
2019-06-08T03:21:49.064Z,99.90
2019-06-08T03:24:17.492Z,99.90
2019-06-08T03:26:47.008Z,99.90
2019-06-08T03:29:15.449Z,99.90
2019-06-08T03:31:54.639Z,99.90
2019-06-08T03:34:14.369Z,99.90
2019-06-08T03:36:53.783Z,99.90
2019-06-08T03:39:13.867Z,99.90
2019-06-08T03:41:43.154Z,99.90
2019-06-08T03:44:12.780Z,99.90
2019-06-08T03:46:43.417Z,99.90
2019-06-08T03:49:11.395Z,99.90
2019-06-08T03:51:59.227Z,99.90
2019-06-08T03:54:27.649Z,99.90
2019-06-08T03:57:03.144Z,99.90
2019-06-08T03:59:31.943Z,99.90
2019-06-08T04:02:00.736Z,99.90
2019-06-08T04:04:29.169Z,99.90
2019-06-08T04:06:57.591Z,99.90
2019-06-08T04:09:26.290Z,99.90
2019-06-08T04:11:54.723Z,99.90
2019-06-08T04:14:23.152Z,99.90
2019-06-08T04:17:11.297Z,99.90
2019-06-08T04:19:39.953Z,99.90
2019-06-08T04:22:08.537Z,99.90
2019-06-08T04:24:38.063Z,99.90
2019-06-08T04:27:06.874Z,99.90
2019-06-08T04:29:35.306Z,99.90
2019-06-08T04:32:04.057Z,99.90
2019-06-08T04:34:32.482Z,99.90
2019-06-08T04:37:00.918Z,99.90
2019-06-08T04:39:29.708Z,99.90
2019-06-08T04:41:58.131Z,99.90
2019-06-08T04:44:26.809Z,99.90
2019-06-08T04:46:55.271Z,99.90
2019-06-08T04:49:23.767Z,99.90
2019-06-08T04:51:52.249Z,99.90
2019-06-08T04:54:20.708Z,99.90
2019-06-08T04:56:49.738Z,99.90
2019-06-08T04:59:18.330Z,99.90
2019-06-08T05:01:47.212Z,99.90
2019-06-08T05:04:16.104Z,99.90
2019-06-08T05:06:45.240Z,99.90
2019-06-08T05:09:14.100Z,99.90
2019-06-08T05:11:43.216Z,99.90
2019-06-08T05:14:12.092Z,99.90
2019-06-08T05:16:41.280Z,99.90
2019-06-08T05:19:10.285Z,99.90
2019-06-08T05:21:39.522Z,99.90
2019-06-08T05:24:08.131Z,99.90
2019-06-08T05:26:36.576Z,99.90
2019-06-08T05:29:05.104Z,99.90
2019-06-08T05:31:33.832Z,99.90
2019-06-08T05:34:02.264Z,99.90
2019-06-08T05:36:31.013Z,99.90
2019-06-08T05:38:59.435Z,99.90
2019-06-08T05:41:27.891Z,99.90
2019-06-08T05:43:56.315Z,99.90
2019-06-08T05:46:24.751Z,99.90
2019-06-08T05:48:53.226Z,99.90
2019-06-08T05:51:22.665Z,99.90
2019-06-08T05:53:51.427Z,99.90
2019-06-08T05:56:20.380Z,99.90
2019-06-08T05:58:50.347Z,99.90
2019-06-08T06:01:19.346Z,99.90
2019-06-08T06:03:48.694Z,99.90
2019-06-08T06:06:17.272Z,99.90
2019-06-08T06:08:46.616Z,99.90
2019-06-08T06:11:15.463Z,99.90
2019-06-08T06:13:45.131Z,99.90
2019-06-08T06:16:13.687Z,99.90
2019-06-08T06:18:42.943Z,99.90
2019-06-08T06:21:12.581Z,99.90
2019-06-08T06:23:41.444Z,99.90
2019-06-08T06:26:09.951Z,99.90
2019-06-08T06:28:38.725Z,99.90
2019-06-08T06:31:07.173Z,99.90
2019-06-08T06:33:35.909Z,99.90
2019-06-08T06:36:04.546Z,99.90
2019-06-08T06:38:33.010Z,99.90
2019-06-08T06:41:01.775Z,99.90
2019-06-08T06:43:50.440Z,99.90
2019-06-08T06:46:19.073Z,99.90
2019-06-08T06:48:48.319Z,99.90
2019-06-08T06:51:26.096Z,99.90
2019-06-08T06:53:48.822Z,99.90
2019-06-08T06:56:17.640Z,99.90
2019-06-08T06:58:47.267Z,99.90
2019-06-08T07:01:16.159Z,99.90
2019-06-08T07:03:45.975Z,99.90
2019-06-08T07:06:14.964Z,99.90
2019-06-08T07:08:44.303Z,99.90
2019-06-08T07:11:13.052Z,99.90
2019-06-08T07:13:41.487Z,99.90
2019-06-08T07:16:18.734Z,99.90
2019-06-08T07:18:40.371Z,99.90
2019-06-08T07:21:09.150Z,99.90
2019-06-08T07:23:37.936Z,99.90
2019-06-08T07:26:06.381Z,99.90
2019-06-08T07:28:34.884Z,99.90
2019-06-08T07:31:03.331Z,99.90
2019-06-08T07:33:31.770Z,99.90
2019-06-08T07:36:00.579Z,99.90
2019-06-08T07:38:28.998Z,99.90
2019-06-08T07:41:00.001Z,99.90
2019-06-08T07:43:27.571Z,99.90
2019-06-08T07:45:56.386Z,99.90
2019-06-08T07:48:27.364Z,99.90
2019-06-08T07:50:56.402Z,99.90
2019-06-08T07:53:25.412Z,99.90
2019-06-08T07:55:56.084Z,99.90
2019-06-08T07:58:24.646Z,99.90
2019-06-08T08:00:54.661Z,99.90
2019-06-08T08:03:23.739Z,99.90
2019-06-08T08:05:53.562Z,99.90
2019-06-08T08:08:22.651Z,99.90
2019-06-08T08:10:51.085Z,99.90
2019-06-08T08:13:19.815Z,98.00
2019-06-08T08:15:49.076Z,97.50
2019-06-08T08:18:17.652Z,99.30
2019-06-08T08:20:46.093Z,99.90
2019-06-08T08:23:14.520Z,99.50
2019-06-08T08:25:43.277Z,98.90
2019-06-08T08:28:11.691Z,98.90
2019-06-08T08:30:40.448Z,96.40
2019-06-08T08:33:09.149Z,95.00
2019-06-08T08:35:38.120Z,94.80
2019-06-08T08:38:07.605Z,95.50
2019-06-08T08:40:38.600Z,95.30
2019-06-08T08:43:06.761Z,96.30
2019-06-08T08:45:37.204Z,95.70
2019-06-08T08:48:28.506Z,95.30
2019-06-08T08:50:56.187Z,92.80
2019-06-08T08:53:25.039Z,91.20
2019-06-08T08:55:54.326Z,92.30
2019-06-08T08:58:22.888Z,92.50
2019-06-08T09:00:52.446Z,93.90
2019-06-08T09:03:28.885Z,93.70
2019-06-08T09:05:53.361Z,93.40
2019-06-08T09:08:23.398Z,93.60
2019-06-08T09:10:53.359Z,92.70
2019-06-08T09:13:22.803Z,92.60
2019-06-08T09:15:52.300Z,91.20
2019-06-08T09:18:21.252Z,91.40
2019-06-08T09:20:49.960Z,91.20
2019-06-08T09:23:21.690Z,90.50
2019-06-08T09:25:48.886Z,90.10
2019-06-08T09:28:18.682Z,90.80
2019-06-08T09:30:48.419Z,90.50
2019-06-08T09:33:18.743Z,90.40
2019-06-08T09:35:48.008Z,89.10
2019-06-08T09:38:18.625Z,90.00
2019-06-08T09:40:48.893Z,90.20
2019-06-08T09:43:18.996Z,91.40
2019-06-08T09:46:09.212Z,89.50
2019-06-08T09:48:38.178Z,90.30
2019-06-08T09:51:09.226Z,89.00
2019-06-08T09:53:41.063Z,85.90
2019-06-08T09:56:09.611Z,84.00
2019-06-08T09:58:39.147Z,86.90
2019-06-08T10:01:09.166Z,85.90
2019-06-08T10:03:43.587Z,83.50
2019-06-08T10:06:12.731Z,82.80
2019-06-08T10:08:41.658Z,83.30
2019-06-08T10:11:10.196Z,80.00
2019-06-08T10:13:39.814Z,80.00
2019-06-08T10:16:10.244Z,81.90
2019-06-08T10:18:39.001Z,81.30
2019-06-08T10:21:09.668Z,82.20
2019-06-08T10:23:38.615Z,80.50
2019-06-08T10:26:19.942Z,79.90
2019-06-08T10:28:51.262Z,78.30
2019-06-08T10:31:18.876Z,79.80
2019-06-08T10:33:48.214Z,81.90
2019-06-08T10:36:18.273Z,81.80
2019-06-08T10:38:48.036Z,83.10
2019-06-08T10:41:21.364Z,80.50
2019-06-08T10:43:48.167Z,80.30
2019-06-08T10:46:20.564Z,80.10
2019-06-08T10:48:48.633Z,80.00
2019-06-08T10:51:18.379Z,77.30
2019-06-08T10:53:52.613Z,78.50
2019-06-08T10:56:18.870Z,78.50
2019-06-08T10:58:49.810Z,76.40
2019-06-08T11:01:18.779Z,75.00
2019-06-08T11:03:48.872Z,77.40
2019-06-08T11:06:18.985Z,77.40
2019-06-08T11:08:47.668Z,78.80
2019-06-08T11:11:19.562Z,79.20
2019-06-08T11:13:50.071Z,77.40
2019-06-08T11:16:18.007Z,78.30
2019-06-08T11:18:50.803Z,78.50
2019-06-08T11:21:18.687Z,78.80
2019-06-08T11:24:04.548Z,80.20
2019-06-08T11:26:30.666Z,78.80
2019-06-08T11:29:01.104Z,81.50
2019-06-08T11:31:32.088Z,79.30
2019-06-08T11:34:00.304Z,79.40
2019-06-08T11:36:30.279Z,76.20
2019-06-08T11:39:00.267Z,76.60
2019-06-08T11:41:28.991Z,78.20
2019-06-08T11:43:59.706Z,76.80
2019-06-08T11:46:28.240Z,78.10
2019-06-08T11:48:57.780Z,77.30
2019-06-08T11:51:29.626Z,76.80
2019-06-08T11:53:59.436Z,77.10
2019-06-08T11:56:28.157Z,76.70
2019-06-08T11:58:57.954Z,76.80
2019-06-08T12:01:27.687Z,77.00
2019-06-08T12:03:57.948Z,78.30
2019-06-08T12:06:26.508Z,76.90
2019-06-08T12:08:54.946Z,77.30
2019-06-08T12:11:23.388Z,78.20
2019-06-08T12:13:52.183Z,78.70
2019-06-08T12:16:22.364Z,78.50
2019-06-08T12:18:50.952Z,78.20
2019-06-08T12:21:19.729Z,78.10
2019-06-08T12:23:48.151Z,79.70
2019-06-08T12:26:16.569Z,77.60
2019-06-08T12:29:05.069Z,78.40
2019-06-08T12:31:33.977Z,78.10
2019-06-08T12:34:02.783Z,77.60
2019-06-08T12:36:31.229Z,76.90
2019-06-08T12:38:59.739Z,78.50
2019-06-08T12:41:31.285Z,78.20
2019-06-08T12:43:58.623Z,80.40
2019-06-08T12:46:27.994Z,79.50
2019-06-08T12:48:58.279Z,81.10
2019-06-08T12:51:28.197Z,81.50
2019-06-08T12:53:59.842Z,82.00
2019-06-08T12:56:28.752Z,79.20
2019-06-08T12:58:58.034Z,81.10
2019-06-08T13:01:28.242Z,79.90
2019-06-08T13:03:58.096Z,80.80
2019-06-08T13:06:28.236Z,77.70
2019-06-08T13:08:57.885Z,78.80
2019-06-08T13:11:28.259Z,79.50
2019-06-08T13:13:56.752Z,79.80
2019-06-08T13:16:25.211Z,80.80
2019-06-08T13:18:53.684Z,80.90
2019-06-08T13:21:33.803Z,81.90
2019-06-08T13:23:52.286Z,80.70
2019-06-08T13:26:27.530Z,80.60
2019-06-08T13:29:11.938Z,80.30
2019-06-08T13:31:41.011Z,79.80
2019-06-08T13:34:11.086Z,77.20
2019-06-08T13:36:42.259Z,77.20
2019-06-08T13:39:11.628Z,78.80
2019-06-08T13:41:40.612Z,77.80
2019-06-08T13:44:09.049Z,73.70
2019-06-08T13:46:37.948Z,73.70
2019-06-08T13:49:08.263Z,73.20
2019-06-08T13:51:38.419Z,71.80
2019-06-08T13:54:08.469Z,71.30
2019-06-08T13:56:38.603Z,68.20
2019-06-08T13:59:08.059Z,69.00
2019-06-08T14:01:37.832Z,68.20
2019-06-08T14:04:08.794Z,68.70
2019-06-08T14:06:37.308Z,70.00
2019-06-08T14:09:08.325Z,70.70
2019-06-08T14:11:37.003Z,69.90
2019-06-08T14:14:08.259Z,69.70
2019-06-08T14:16:38.729Z,70.40
2019-06-08T14:19:08.458Z,72.50
2019-06-08T14:21:41.653Z,70.50
2019-06-08T14:24:07.765Z,71.50
2019-06-08T14:26:37.659Z,70.10
2019-06-08T14:29:08.233Z,68.40
2019-06-08T14:31:38.109Z,66.10
2019-06-08T14:34:10.017Z,65.50
2019-06-08T14:36:40.624Z,66.20
2019-06-08T14:39:10.433Z,67.40
2019-06-08T14:41:37.735Z,68.20
2019-06-08T14:44:08.312Z,68.40
2019-06-08T14:46:40.831Z,68.60
2019-06-08T14:49:06.967Z,66.20
2019-06-08T14:51:49.009Z,64.40
2019-06-08T14:54:22.785Z,65.40
2019-06-08T14:56:49.084Z,66.60
2019-06-08T14:59:18.809Z,69.00
2019-06-08T15:01:48.965Z,70.10
2019-06-08T15:04:20.253Z,69.00
2019-06-08T15:06:49.007Z,69.20
2019-06-08T15:09:37.632Z,68.60
2019-06-08T15:12:26.141Z,69.90
2019-06-08T15:14:57.902Z,68.30
2019-06-08T15:17:28.888Z,69.60
2019-06-08T15:19:58.578Z,69.30
2019-06-08T15:22:29.907Z,68.90
2019-06-08T15:25:11.159Z,69.70
2019-06-08T15:27:39.923Z,68.90
2019-06-08T15:30:09.176Z,69.50
2019-06-08T15:32:38.635Z,70.00
2019-06-08T15:35:08.297Z,70.00
2019-06-08T15:37:38.083Z,72.00
2019-06-08T15:40:07.660Z,71.40
2019-06-08T15:42:36.313Z,71.80
2019-06-08T15:45:08.601Z,71.90
2019-06-08T15:47:40.505Z,71.80
2019-06-08T15:50:08.822Z,73.60
2019-06-08T15:52:38.148Z,74.20
2019-06-08T15:55:10.891Z,72.60
2019-06-08T15:57:40.891Z,74.20
2019-06-08T16:00:10.247Z,73.30
2019-06-08T16:02:39.457Z,74.00
2019-06-08T16:05:08.918Z,72.20
2019-06-08T16:07:37.613Z,71.60
2019-06-08T16:10:08.172Z,70.80
2019-06-08T16:12:37.079Z,71.60
2019-06-08T16:15:06.952Z,71.80
2019-06-08T16:17:35.678Z,72.60
2019-06-08T16:20:04.853Z,74.10
2019-06-08T16:22:33.915Z,74.80
2019-06-08T16:25:02.503Z,75.60
2019-06-08T16:27:32.018Z,76.60
2019-06-08T16:30:08.730Z,76.40
2019-06-08T16:32:31.648Z,76.40
2019-06-08T16:35:00.219Z,76.90
2019-06-08T16:37:29.535Z,77.00
2019-06-08T16:39:58.391Z,76.80
2019-06-08T16:42:27.867Z,78.00
2019-06-08T16:44:56.511Z,76.40
2019-06-08T16:47:25.458Z,76.90
2019-06-08T16:49:54.283Z,74.40
2019-06-08T16:52:22.703Z,74.30
2019-06-08T16:54:51.149Z,73.70
2019-06-08T16:57:19.571Z,73.00
2019-06-08T16:59:48.021Z,71.40
2019-06-08T17:02:17.170Z,72.90
2019-06-08T17:04:46.000Z,73.00
2019-06-08T17:07:14.439Z,73.30
2019-06-08T17:09:43.099Z,75.60
2019-06-08T17:12:11.749Z,75.90
2019-06-08T17:14:40.659Z,76.60
2019-06-08T17:17:09.498Z,75.50
2019-06-08T17:19:38.436Z,76.90
2019-06-08T17:22:07.351Z,76.40
2019-06-08T17:24:36.678Z,75.20
2019-06-08T17:27:05.764Z,74.90
2019-06-08T17:29:34.905Z,73.80
2019-06-08T17:32:04.500Z,75.50
2019-06-08T17:34:34.946Z,75.50
2019-06-08T17:37:03.071Z,76.20
2019-06-08T17:39:37.944Z,76.10
2019-06-08T17:42:25.851Z,74.10
2019-06-08T17:44:54.616Z,74.30
2019-06-08T17:47:24.649Z,75.70
2019-06-08T17:49:53.400Z,76.10
2019-06-08T17:52:21.822Z,76.00
2019-06-08T17:54:50.255Z,76.60
2019-06-08T17:57:18.987Z,76.70
2019-06-08T17:59:47.901Z,77.30
2019-06-08T18:02:25.026Z,77.60
2019-06-08T18:04:48.551Z,77.50
2019-06-08T18:07:17.198Z,77.70
2019-06-08T18:09:45.693Z,77.70
2019-06-08T18:12:14.134Z,77.50
2019-06-08T18:14:43.867Z,76.10
2019-06-08T18:17:12.737Z,77.00
2019-06-08T18:19:43.650Z,77.70
2019-06-08T18:22:30.680Z,77.60
2019-06-08T18:24:59.470Z,77.70
2019-06-08T18:27:28.243Z,78.70
2019-06-08T18:29:58.217Z,79.30
2019-06-08T18:32:27.173Z,80.70
2019-06-08T18:34:57.260Z,80.80
2019-06-08T18:37:28.313Z,81.10
2019-06-08T18:39:57.809Z,81.80
2019-06-08T18:42:27.019Z,82.20
2019-06-08T18:44:58.084Z,81.40
2019-06-08T18:47:27.375Z,82.50
2019-06-08T18:49:57.427Z,82.00
2019-06-08T18:52:27.837Z,82.70
2019-06-08T18:54:57.856Z,83.30
2019-06-08T18:57:33.440Z,84.60
2019-06-08T19:00:08.523Z,84.40
2019-06-08T19:02:32.127Z,85.10
2019-06-08T19:05:00.568Z,85.40
2019-06-08T19:07:29.260Z,86.10
2019-06-08T19:10:00.074Z,86.70
2019-06-08T19:12:28.891Z,87.40
2019-06-08T19:14:58.631Z,87.60
2019-06-08T19:17:28.423Z,87.90
2019-06-08T19:20:18.158Z,87.90
2019-06-08T19:22:53.772Z,88.50
2019-06-08T19:25:17.571Z,88.40
2019-06-08T19:27:51.821Z,89.80
2019-06-08T19:30:39.450Z,90.60
2019-06-08T19:33:07.611Z,91.60
2019-06-08T19:35:37.650Z,92.80
2019-06-08T19:38:07.403Z,93.40
2019-06-08T19:40:38.853Z,93.80
2019-06-08T19:43:07.511Z,94.20
2019-06-08T19:45:39.143Z,94.60
2019-06-08T19:48:08.290Z,94.70
2019-06-08T19:50:38.671Z,95.30
2019-06-08T19:53:07.367Z,95.70
2019-06-08T19:55:36.335Z,96.10
2019-06-08T19:58:08.970Z,96.60
2019-06-08T20:00:40.482Z,97.20
2019-06-08T20:03:08.512Z,97.70
2019-06-08T20:05:37.856Z,98.00
2019-06-08T20:08:08.038Z,98.60
2019-06-08T20:10:39.364Z,99.00
2019-06-08T20:13:07.943Z,99.30
2019-06-08T20:15:43.358Z,99.70
2019-06-08T20:18:06.728Z,99.90
2019-06-08T20:20:35.184Z,99.90
2019-06-08T20:23:09.551Z,99.90
2019-06-08T20:25:38.037Z,99.90
2019-06-08T20:28:07.778Z,99.90
2019-06-08T20:30:37.521Z,99.90
2019-06-08T20:33:08.097Z,99.90
2019-06-08T20:35:37.518Z,99.90
2019-06-08T20:38:08.341Z,99.90
2019-06-08T20:40:38.362Z,99.90
2019-06-08T20:43:07.197Z,99.90
2019-06-08T20:45:37.498Z,99.90
2019-06-08T20:48:06.148Z,99.90
2019-06-08T20:50:37.808Z,99.90
2019-06-08T20:53:10.196Z,99.90
2019-06-08T20:55:40.433Z,99.90
2019-06-08T20:58:09.472Z,99.90
2019-06-08T21:00:37.966Z,99.90
2019-06-08T21:03:08.171Z,99.90
2019-06-08T21:05:36.903Z,99.90
2019-06-08T21:08:08.174Z,99.90
2019-06-08T21:10:37.817Z,99.90
2019-06-08T21:13:07.280Z,99.90
2019-06-08T21:15:38.471Z,99.90
2019-06-08T21:18:07.887Z,99.90
2019-06-08T21:20:37.750Z,99.90
2019-06-08T21:23:08.195Z,99.90
2019-06-08T21:25:37.291Z,99.90
2019-06-08T21:28:07.734Z,99.90
2019-06-08T21:30:37.820Z,99.90
2019-06-08T21:33:08.223Z,99.90
2019-06-08T21:35:36.940Z,99.90
2019-06-08T21:38:20.166Z,99.90
2019-06-08T21:40:37.611Z,99.90
2019-06-08T21:43:08.124Z,99.90
2019-06-08T21:45:42.422Z,99.90
2019-06-08T21:48:10.939Z,99.90
2019-06-08T21:50:39.355Z,99.90
2019-06-08T21:53:07.928Z,99.90
2019-06-08T21:55:37.989Z,99.90
2019-06-08T21:58:08.075Z,99.90
2019-06-08T22:00:42.913Z,99.90
2019-06-08T22:03:08.064Z,99.90
2019-06-08T22:05:37.702Z,99.90
2019-06-08T22:08:08.036Z,99.90
2019-06-08T22:10:37.723Z,99.90
2019-06-08T22:13:28.256Z,99.90
2019-06-08T22:16:00.988Z,99.90
2019-06-08T22:18:27.564Z,99.90
2019-06-08T22:20:59.368Z,99.90
2019-06-08T22:23:26.435Z,99.90
2019-06-08T22:25:56.017Z,99.90
2019-06-08T22:28:27.001Z,99.90
2019-06-08T22:30:56.191Z,99.90
2019-06-08T22:33:25.354Z,99.90
2019-06-08T22:35:54.244Z,99.90
2019-06-08T22:38:23.092Z,99.90
2019-06-08T22:40:52.644Z,99.90
2019-06-08T22:43:22.064Z,99.90
2019-06-08T22:45:52.787Z,99.90
2019-06-08T22:48:21.320Z,99.90
2019-06-08T22:50:50.112Z,99.90
2019-06-08T22:53:18.548Z,99.90
2019-06-08T22:55:47.638Z,99.90
2019-06-08T22:58:19.018Z,99.90
2019-06-08T23:00:52.713Z,99.90
2019-06-08T23:03:20.619Z,99.90
2019-06-08T23:05:49.326Z,99.90
2019-06-08T23:08:18.010Z,99.90
2019-06-08T23:10:48.260Z,99.90
2019-06-08T23:13:17.988Z,99.90
2019-06-08T23:15:47.959Z,99.90
2019-06-08T23:18:18.100Z,99.90
2019-06-08T23:20:47.903Z,99.90
2019-06-08T23:23:17.855Z,99.90
2019-06-08T23:25:47.852Z,99.90
2019-06-08T23:28:18.051Z,99.90
2019-06-08T23:30:47.749Z,99.90
2019-06-08T23:33:18.948Z,99.90
2019-06-08T23:36:27.384Z,99.90
2019-06-08T23:38:17.860Z,99.90
2019-06-08T23:40:47.458Z,99.90
2019-06-08T23:43:18.088Z,99.90
2019-06-08T23:45:47.411Z,99.90
2019-06-08T23:48:17.397Z,99.90
2019-06-08T23:50:47.430Z,99.90
2019-06-08T23:53:18.225Z,99.90
2019-06-08T23:55:47.881Z,99.90
2019-06-08T23:58:17.596Z,99.90
